createdAt,value
2023-04-25T00:00:38.193Z,3.95
2023-04-25T00:03:10.093Z,2.10
2023-04-25T00:05:38.828Z,2.50
2023-04-25T00:08:08.478Z,2.70
2023-04-25T00:10:36.741Z,2.95
2023-04-25T00:13:05.489Z,2.53
2023-04-25T00:15:33.760Z,3.40
2023-04-25T00:18:02.058Z,2.90
2023-04-25T00:20:31.032Z,1.95
2023-04-25T00:22:59.488Z,2.05
2023-04-25T00:25:29.930Z,2.28
2023-04-25T00:28:00.897Z,2.20
2023-04-25T00:30:29.203Z,2.25
2023-04-25T00:32:59.994Z,2.10
2023-04-25T00:35:28.735Z,2.28
2023-04-25T00:37:57.142Z,2.22
2023-04-25T00:40:25.489Z,1.50
2023-04-25T00:42:57.854Z,3.22
2023-04-25T00:45:29.845Z,1.73
2023-04-25T00:47:58.674Z,2.50
2023-04-25T00:50:38.080Z,1.73
2023-04-25T00:53:06.705Z,2.40
2023-04-25T00:55:37.532Z,2.03
2023-04-25T00:58:07.194Z,2.67
2023-04-25T01:00:35.820Z,2.63
2023-04-25T01:03:04.829Z,2.65
2023-04-25T01:05:34.343Z,2.40
2023-04-25T01:08:07.426Z,2.13
2023-04-25T01:10:35.812Z,1.90
2023-04-25T01:13:04.346Z,2.17
2023-04-25T01:15:33.981Z,1.50
2023-04-25T01:18:03.075Z,2.47
2023-04-25T01:20:32.259Z,1.67
2023-04-25T01:23:04.940Z,2.05
2023-04-25T01:25:38.303Z,2.67
2023-04-25T01:28:06.889Z,2.45
2023-04-25T01:30:35.451Z,1.70
2023-04-25T01:33:04.124Z,2.08
2023-04-25T01:35:32.717Z,1.85
2023-04-25T01:38:03.509Z,1.88
2023-04-25T01:40:32.185Z,2.15
2023-04-25T01:43:02.933Z,1.90
2023-04-25T01:45:37.666Z,2.20
2023-04-25T01:48:06.155Z,1.73
2023-04-25T01:50:34.551Z,2.28
2023-04-25T01:53:04.286Z,1.73
2023-04-25T01:55:32.663Z,1.50
2023-04-25T01:58:10.604Z,2.05
2023-04-25T02:00:57.085Z,2.33
2023-04-25T02:03:28.372Z,2.30
2023-04-25T02:06:03.120Z,1.77
2023-04-25T02:08:39.292Z,2.20
2023-04-25T02:11:07.718Z,1.50
2023-04-25T02:13:43.292Z,1.70
2023-04-25T02:16:39.673Z,1.83
2023-04-25T02:19:09.596Z,2.20
2023-04-25T02:21:38.173Z,1.48
2023-04-25T02:24:08.804Z,1.58
2023-04-25T02:26:37.662Z,1.73
2023-04-25T02:29:13.079Z,1.80
2023-04-25T02:31:48.607Z,1.90
2023-04-25T02:34:17.038Z,2.38
2023-04-25T02:36:45.809Z,1.80
2023-04-25T02:39:17.844Z,1.60
2023-04-25T02:41:46.246Z,1.58
2023-04-25T02:44:14.467Z,2.13
2023-04-25T02:46:50.107Z,2.72
2023-04-25T02:49:23.078Z,2.05
2023-04-25T02:52:02.417Z,1.70
2023-04-25T02:54:34.846Z,1.83
2023-04-25T02:57:05.883Z,1.67
2023-04-25T02:59:38.293Z,1.48
2023-04-25T03:02:06.709Z,1.90
2023-04-25T03:04:35.428Z,3.15
2023-04-25T03:07:10.955Z,1.35
2023-04-25T03:09:43.011Z,2.00
2023-04-25T03:12:11.491Z,0.88
2023-04-25T03:14:44.421Z,1.27
2023-04-25T03:17:17.390Z,1.90
2023-04-25T03:19:45.646Z,1.25
2023-04-25T03:22:14.116Z,1.60
2023-04-25T03:24:50.538Z,1.98
2023-04-25T03:27:21.109Z,1.20
2023-04-25T03:29:49.629Z,2.03
2023-04-25T03:32:17.887Z,1.80
2023-04-25T03:34:51.058Z,1.40
2023-04-25T03:37:19.614Z,1.27
2023-04-25T03:39:49.521Z,1.23
2023-04-25T03:42:20.834Z,1.95
2023-04-25T03:44:53.432Z,1.83
2023-04-25T03:47:22.805Z,1.63
2023-04-25T03:49:52.800Z,1.40
2023-04-25T03:52:26.229Z,1.27
2023-04-25T03:54:56.735Z,1.73
2023-04-25T03:57:26.834Z,1.52
2023-04-25T03:59:55.673Z,1.65
2023-04-25T04:02:25.013Z,1.52
2023-04-25T04:04:57.064Z,1.60
2023-04-25T04:07:25.685Z,1.35
2023-04-25T04:09:58.998Z,1.90
2023-04-25T04:12:32.905Z,1.95
2023-04-25T04:15:01.818Z,0.90
2023-04-25T04:17:30.983Z,1.35
2023-04-25T04:20:07.881Z,1.60
2023-04-25T04:22:40.998Z,1.40
2023-04-25T04:25:14.148Z,1.10
2023-04-25T04:28:14.175Z,2.10
2023-04-25T04:31:02.171Z,2.17
2023-04-25T04:33:33.018Z,1.58
2023-04-25T04:36:08.759Z,1.67
2023-04-25T04:38:37.510Z,1.90
2023-04-25T04:41:10.979Z,1.00
2023-04-25T04:43:57.017Z,1.48
2023-04-25T04:46:51.800Z,1.40
2023-04-25T04:49:41.105Z,1.88
2023-04-25T04:52:24.409Z,1.13
2023-04-25T04:54:57.608Z,0.98
2023-04-25T04:57:48.359Z,1.40
2023-04-25T05:00:29.744Z,1.25
2023-04-25T05:03:24.202Z,1.27
2023-04-25T05:06:04.912Z,1.02
2023-04-25T05:08:49.090Z,1.00
2023-04-25T05:11:37.628Z,1.40
2023-04-25T05:14:28.693Z,1.38
2023-04-25T05:17:09.505Z,1.10
2023-04-25T05:20:03.826Z,1.50
2023-04-25T05:22:55.074Z,1.40
2023-04-25T05:25:36.736Z,1.13
2023-04-25T05:28:11.027Z,1.17
2023-04-25T05:30:55.991Z,1.27
2023-04-25T05:33:31.150Z,1.50
2023-04-25T05:36:00.002Z,1.27
2023-04-25T05:38:28.828Z,1.13
2023-04-25T05:41:15.744Z,1.10
2023-04-25T05:44:13.148Z,1.30
2023-04-25T05:46:52.178Z,1.98
2023-04-25T05:49:40.687Z,2.08
2023-04-25T05:52:22.441Z,0.88
2023-04-25T05:54:59.005Z,1.05
2023-04-25T05:57:32.426Z,0.77
2023-04-25T06:00:01.770Z,1.35
2023-04-25T06:02:51.927Z,0.95
2023-04-25T06:05:28.257Z,1.30
2023-04-25T06:07:59.985Z,0.77
2023-04-25T06:10:28.676Z,1.45
2023-04-25T06:12:56.943Z,0.85
2023-04-25T06:15:28.528Z,1.38
2023-04-25T06:17:59.744Z,1.15
2023-04-25T06:20:30.296Z,1.15
2023-04-25T06:23:03.388Z,1.20
2023-04-25T06:25:45.029Z,1.20
2023-04-25T06:28:14.093Z,1.08
2023-04-25T06:30:42.978Z,0.93
2023-04-25T06:33:16.704Z,0.82
2023-04-25T06:35:45.213Z,0.90
2023-04-25T06:38:15.894Z,0.90
2023-04-25T06:40:48.456Z,0.95
2023-04-25T06:43:19.206Z,0.52
2023-04-25T06:46:08.368Z,1.00
2023-04-25T06:48:45.016Z,1.30
2023-04-25T06:51:14.618Z,0.77
2023-04-25T06:53:45.211Z,1.05
2023-04-25T06:56:26.007Z,1.10
2023-04-25T06:59:02.443Z,0.73
2023-04-25T07:01:34.520Z,1.50
2023-04-25T07:04:09.311Z,0.95
2023-04-25T07:06:43.622Z,0.88
2023-04-25T07:09:12.999Z,0.65
2023-04-25T07:11:43.895Z,0.82
2023-04-25T07:14:12.281Z,1.33
2023-04-25T07:16:40.859Z,1.23
2023-04-25T07:19:11.680Z,1.35
2023-04-25T07:21:40.088Z,1.65
2023-04-25T07:24:09.077Z,0.63
2023-04-25T07:26:46.675Z,0.98
2023-04-25T07:29:38.385Z,1.05
2023-04-25T07:32:09.612Z,0.80
2023-04-25T07:34:39.734Z,0.65
2023-04-25T07:37:08.365Z,1.38
2023-04-25T07:39:47.038Z,1.10
2023-04-25T07:42:18.304Z,0.77
2023-04-25T07:44:46.731Z,0.73
2023-04-25T07:47:17.233Z,1.00
2023-04-25T07:49:51.655Z,0.80
2023-04-25T07:52:22.410Z,0.93
2023-04-25T07:54:55.946Z,1.23
2023-04-25T07:57:32.011Z,1.10
2023-04-25T08:00:01.030Z,1.25
2023-04-25T08:02:31.342Z,0.85
2023-04-25T08:05:01.995Z,1.02
2023-04-25T08:07:32.613Z,0.93
2023-04-25T08:10:09.289Z,1.05
2023-04-25T08:12:37.757Z,0.90
2023-04-25T08:15:10.714Z,0.85
2023-04-25T08:17:46.510Z,0.90
2023-04-25T08:20:16.776Z,0.85
2023-04-25T08:22:46.044Z,0.47
2023-04-25T08:25:25.506Z,1.55
2023-04-25T08:27:53.869Z,0.47
2023-04-25T08:30:28.773Z,0.50
2023-04-25T08:32:57.861Z,1.00
2023-04-25T08:35:43.030Z,1.10
2023-04-25T08:38:13.929Z,0.82
2023-04-25T08:40:42.591Z,1.10
2023-04-25T08:43:16.967Z,1.02
2023-04-25T08:45:45.861Z,0.90
2023-04-25T08:48:24.227Z,0.50
2023-04-25T08:50:57.051Z,0.40
2023-04-25T08:53:28.761Z,0.57
2023-04-25T08:55:59.868Z,0.80
2023-04-25T08:58:34.693Z,0.82
2023-04-25T09:01:03.354Z,0.90
2023-04-25T09:03:38.604Z,0.73
2023-04-25T09:06:10.773Z,0.70
2023-04-25T09:08:41.125Z,0.65
2023-04-25T09:11:10.003Z,0.88
2023-04-25T09:13:38.861Z,0.80
2023-04-25T09:16:26.357Z,0.63
2023-04-25T09:19:39.848Z,0.65
2023-04-25T09:22:24.906Z,0.82
2023-04-25T09:24:53.228Z,0.57
2023-04-25T09:27:28.997Z,0.57
2023-04-25T09:30:07.337Z,0.90
2023-04-25T09:32:56.659Z,0.75
2023-04-25T09:35:28.616Z,0.70
2023-04-25T09:38:03.058Z,0.50
2023-04-25T09:40:51.654Z,0.73
2023-04-25T09:43:28.809Z,0.70
2023-04-25T09:46:00.497Z,0.30
2023-04-25T09:48:30.977Z,0.40
2023-04-25T09:51:07.823Z,0.80
2023-04-25T09:53:38.427Z,0.50
2023-04-25T09:56:19.519Z,0.75
2023-04-25T09:58:49.855Z,0.40
2023-04-25T10:01:19.244Z,0.57
2023-04-25T10:04:01.781Z,0.52
2023-04-25T10:06:42.354Z,1.35
2023-04-25T10:09:12.018Z,0.63
2023-04-25T10:11:41.233Z,0.73
2023-04-25T10:14:09.496Z,0.98
2023-04-25T10:16:38.563Z,0.75
2023-04-25T10:19:07.246Z,0.35
2023-04-25T10:21:39.363Z,0.77
2023-04-25T10:24:08.084Z,0.90
2023-04-25T10:26:38.047Z,0.77
2023-04-25T10:29:06.388Z,0.32
2023-04-25T10:31:35.754Z,0.60
2023-04-25T10:34:06.517Z,0.70
2023-04-25T10:36:35.047Z,1.10
2023-04-25T10:39:09.741Z,0.60
2023-04-25T10:41:55.815Z,0.80
2023-04-25T10:44:24.391Z,0.68
2023-04-25T10:46:52.704Z,0.63
2023-04-25T10:49:34.258Z,0.55
2023-04-25T10:52:15.913Z,1.27
2023-04-25T10:54:45.132Z,1.25
2023-04-25T10:57:30.841Z,1.05
2023-04-25T11:00:06.122Z,0.75
2023-04-25T11:02:34.708Z,0.73
2023-04-25T11:05:03.147Z,0.98
2023-04-25T11:07:38.745Z,0.80
2023-04-25T11:10:14.717Z,0.70
2023-04-25T11:12:44.340Z,0.60
2023-04-25T11:15:12.777Z,0.73
2023-04-25T11:17:45.894Z,0.60
2023-04-25T11:20:15.648Z,0.93
2023-04-25T11:22:44.479Z,0.70
2023-04-25T11:25:13.445Z,0.75
2023-04-25T11:27:52.158Z,1.33
2023-04-25T11:30:24.868Z,0.93
2023-04-25T11:32:55.863Z,0.82
2023-04-25T11:35:26.243Z,0.98
2023-04-25T11:37:55.058Z,0.93
2023-04-25T11:40:23.434Z,0.65
2023-04-25T11:45:41.825Z,1.08
2023-04-25T11:47:39.723Z,0.65
2023-04-25T11:48:10.341Z,1.25
2023-04-25T11:50:41.774Z,0.68
2023-04-25T11:53:12.502Z,0.52
2023-04-25T11:55:43.263Z,0.70
2023-04-25T11:58:11.830Z,0.93
2023-04-25T12:00:50.581Z,0.70
2023-04-25T12:03:24.086Z,1.00
2023-04-25T12:05:53.147Z,0.90
2023-04-25T12:08:24.213Z,1.15
2023-04-25T12:10:56.086Z,0.77
2023-04-25T12:13:25.088Z,0.57
2023-04-25T12:15:56.802Z,0.77
2023-04-25T12:18:26.253Z,0.60
2023-04-25T12:20:55.207Z,0.70
2023-04-25T12:23:31.234Z,1.02
2023-04-25T12:26:00.059Z,0.70
2023-04-25T12:28:29.246Z,0.63
2023-04-25T12:31:03.054Z,0.55
2023-04-25T12:33:32.508Z,0.70
2023-04-25T12:36:02.030Z,0.77
2023-04-25T12:38:32.371Z,0.82
2023-04-25T12:41:01.353Z,0.63
2023-04-25T12:43:29.807Z,1.15
2023-04-25T12:45:59.347Z,1.08
2023-04-25T12:48:28.902Z,0.73
2023-04-25T12:50:57.176Z,0.75
2023-04-25T12:53:26.050Z,0.80
2023-04-25T12:58:24.675Z,0.77
2023-04-25T13:00:55.375Z,0.98
2023-04-25T13:03:26.624Z,1.13
2023-04-25T13:05:58.734Z,0.50
2023-04-25T13:08:27.400Z,1.00
2023-04-25T13:10:55.640Z,0.90
2023-04-25T13:13:24.066Z,1.10
2023-04-25T13:15:52.742Z,0.95
2023-04-25T13:18:21.848Z,1.08
2023-04-25T13:20:50.399Z,0.80
2023-04-25T13:23:19.998Z,0.88
2023-04-25T13:25:50.608Z,0.65
2023-04-25T13:28:19.095Z,0.70
2023-04-25T13:30:48.905Z,0.90
2023-04-25T13:33:17.302Z,0.70
2023-04-25T13:35:48.216Z,0.65
2023-04-25T13:38:24.185Z,0.95
2023-04-25T13:40:54.423Z,0.82
2023-04-25T13:43:25.404Z,0.90
2023-04-25T13:45:53.893Z,0.90
2023-04-25T13:48:27.005Z,1.13
2023-04-25T13:50:55.436Z,1.40
2023-04-25T13:53:23.696Z,1.05
2023-04-25T13:55:51.868Z,1.00
2023-04-25T13:58:21.751Z,1.00
2023-04-25T14:00:50.006Z,1.10
2023-04-25T14:03:20.919Z,1.13
2023-04-25T14:05:52.021Z,0.68
2023-04-25T14:08:24.838Z,0.88
2023-04-25T14:10:55.454Z,1.30
2023-04-25T14:13:25.992Z,1.00
2023-04-25T14:16:01.691Z,0.85
2023-04-25T14:18:32.327Z,1.30
2023-04-25T14:21:01.025Z,0.88
2023-04-25T14:23:31.740Z,0.50
2023-04-25T14:26:00.086Z,0.68
2023-04-25T14:28:29.893Z,1.10
2023-04-25T14:31:01.590Z,1.50
2023-04-25T14:33:32.344Z,1.63
2023-04-25T14:36:03.515Z,0.90
2023-04-25T14:38:31.952Z,0.98
2023-04-25T14:41:00.236Z,1.02
2023-04-25T14:43:30.177Z,0.80
2023-04-25T14:45:58.822Z,1.38
2023-04-25T14:48:27.221Z,1.10
2023-04-25T14:51:00.893Z,0.70
2023-04-25T14:53:29.809Z,0.88
2023-04-25T14:56:00.686Z,0.77
2023-04-25T14:58:30.366Z,0.52
2023-04-25T15:00:59.125Z,1.10
2023-04-25T15:03:27.822Z,0.82
2023-04-25T15:05:59.866Z,0.93
2023-04-25T15:08:28.793Z,0.90
2023-04-25T15:10:57.079Z,1.23
2023-04-25T15:13:25.959Z,0.90
2023-04-25T15:15:56.489Z,1.00
2023-04-25T15:18:25.096Z,0.80
2023-04-25T15:20:53.873Z,0.70
2023-04-25T15:23:22.890Z,1.08
2023-04-25T15:25:56.837Z,1.42
2023-04-25T15:28:25.666Z,0.85
2023-04-25T15:30:53.913Z,1.02
2023-04-25T15:33:23.788Z,1.15
2023-04-25T15:35:52.130Z,1.05
2023-04-25T15:38:22.853Z,1.20
2023-04-25T15:40:51.188Z,1.38
2023-04-25T15:43:19.598Z,1.33
2023-04-25T15:45:48.079Z,0.70
2023-04-25T15:48:16.503Z,0.73
2023-04-25T15:50:48.581Z,1.30
2023-04-25T15:53:21.619Z,1.27
2023-04-25T15:55:50.073Z,1.02
2023-04-25T15:58:18.318Z,1.25
2023-04-25T16:00:51.201Z,0.63
2023-04-25T16:03:19.671Z,0.80
2023-04-25T16:05:49.382Z,0.85
2023-04-25T16:08:18.154Z,0.85
2023-04-25T16:10:48.954Z,0.80
2023-04-25T16:13:17.208Z,0.98
2023-04-25T16:15:45.553Z,0.65
2023-04-25T16:18:14.002Z,0.98
2023-04-25T16:20:42.440Z,0.63
2023-04-25T16:23:12.270Z,0.63
2023-04-25T16:25:41.125Z,0.73
2023-04-25T16:28:14.072Z,1.08
2023-04-25T16:30:42.366Z,0.80
2023-04-25T16:33:13.084Z,0.82
2023-04-25T16:35:41.531Z,1.10
2023-04-25T16:38:09.864Z,0.70
2023-04-25T16:40:41.879Z,0.90
2023-04-25T16:43:10.201Z,1.35
2023-04-25T16:45:40.714Z,1.02
2023-04-25T16:48:08.986Z,0.80
2023-04-25T16:50:37.356Z,0.70
2023-04-25T16:53:05.685Z,1.00
2023-04-25T16:55:34.002Z,0.80
2023-04-25T16:58:04.026Z,0.63
2023-04-25T17:00:34.634Z,0.60
2023-04-25T17:03:05.407Z,0.80
2023-04-25T17:05:45.694Z,0.88
2023-04-25T17:08:13.983Z,1.92
2023-04-25T17:10:42.398Z,0.85
2023-04-25T17:13:11.947Z,0.98
2023-04-25T17:15:40.490Z,0.90
2023-04-25T17:18:08.964Z,0.80
2023-04-25T17:20:42.226Z,1.23
2023-04-25T17:23:10.640Z,1.10
2023-04-25T17:25:41.298Z,0.88
2023-04-25T17:28:12.995Z,1.38
2023-04-25T17:30:45.054Z,0.77
2023-04-25T17:33:13.364Z,1.58
2023-04-25T17:35:46.227Z,1.02
2023-04-25T17:38:15.079Z,0.82
2023-04-25T17:40:43.342Z,1.15
2023-04-25T17:43:13.996Z,0.80
2023-04-25T17:45:43.785Z,0.88
2023-04-25T17:48:12.784Z,1.05
2023-04-25T17:50:41.258Z,1.17
2023-04-25T17:53:09.552Z,1.20
2023-04-25T17:55:38.171Z,0.68
2023-04-25T17:58:06.749Z,0.90
2023-04-25T18:00:39.805Z,1.20
2023-04-25T18:03:12.076Z,1.05
2023-04-25T18:05:41.521Z,1.15
2023-04-25T18:08:09.835Z,0.90
2023-04-25T18:10:38.943Z,0.82
2023-04-25T18:13:09.121Z,1.20
2023-04-25T18:15:37.437Z,1.25
2023-04-25T18:18:14.739Z,0.95
2023-04-25T18:20:45.350Z,1.05
2023-04-25T18:23:14.884Z,1.02
2023-04-25T18:25:43.491Z,0.90
2023-04-25T18:28:11.785Z,1.58
2023-04-25T18:30:40.079Z,1.00
2023-04-25T18:33:10.963Z,1.00
2023-04-25T18:35:45.042Z,0.90
2023-04-25T18:38:32.049Z,1.10
2023-04-25T18:41:26.830Z,1.58
2023-04-25T18:43:52.830Z,1.27
2023-04-25T18:46:22.570Z,1.40
2023-04-25T18:48:51.604Z,1.58
2023-04-25T18:51:20.741Z,0.95
2023-04-25T18:53:50.635Z,1.30
2023-04-25T18:56:22.765Z,1.42
2023-04-25T18:58:57.787Z,1.30
2023-04-25T19:01:29.021Z,1.17
2023-04-25T19:04:00.226Z,1.30
2023-04-25T19:06:29.996Z,1.70
2023-04-25T19:08:59.929Z,1.95
2023-04-25T19:11:30.971Z,1.27
2023-04-25T19:14:01.509Z,1.25
2023-04-25T19:16:29.908Z,1.42
2023-04-25T19:18:58.596Z,1.20
2023-04-25T19:21:29.682Z,1.20
2023-04-25T19:23:58.019Z,1.52
2023-04-25T19:26:30.639Z,1.40
2023-04-25T19:29:05.963Z,2.08
2023-04-25T19:31:34.707Z,1.77
2023-04-25T19:34:10.354Z,1.40
2023-04-25T19:36:41.899Z,1.67
2023-04-25T19:39:13.069Z,2.30
2023-04-25T19:41:42.990Z,1.50
2023-04-25T19:44:11.481Z,1.30
2023-04-25T19:46:40.265Z,2.10
2023-04-25T19:49:08.938Z,1.00
2023-04-25T19:51:39.763Z,1.10
2023-04-25T19:54:08.064Z,1.77
2023-04-25T19:56:36.409Z,1.20
2023-04-25T19:59:06.006Z,1.52
2023-04-25T20:01:38.699Z,1.10
2023-04-25T20:04:07.208Z,1.65
2023-04-25T20:06:36.833Z,1.52
2023-04-25T20:09:09.709Z,2.00
2023-04-25T20:11:45.282Z,2.00
2023-04-25T20:14:15.288Z,1.30
2023-04-25T20:16:43.991Z,1.83
2023-04-25T20:19:14.339Z,1.63
2023-04-25T20:21:42.876Z,2.28
2023-04-25T20:24:11.906Z,1.75
2023-04-25T20:26:40.217Z,1.70
2023-04-25T20:29:15.014Z,1.95
2023-04-25T20:31:44.946Z,2.42
2023-04-25T20:34:13.168Z,2.53
2023-04-25T20:36:42.715Z,1.98
2023-04-25T20:39:11.050Z,2.15
2023-04-25T20:41:40.367Z,1.90
2023-04-25T20:44:09.500Z,2.30
2023-04-25T20:46:37.993Z,2.10
2023-04-25T20:49:07.624Z,2.53
2023-04-25T20:51:37.331Z,2.20
2023-04-25T20:54:05.741Z,2.22
2023-04-25T20:56:33.979Z,2.08
2023-04-25T20:59:02.282Z,1.92
2023-04-25T21:01:31.335Z,2.40
2023-04-25T21:04:00.648Z,2.03
2023-04-25T21:06:31.311Z,2.33
2023-04-25T21:09:01.802Z,1.55
2023-04-25T21:11:30.257Z,2.47
2023-04-25T21:13:58.801Z,2.50
2023-04-25T21:16:27.354Z,2.47
2023-04-25T21:18:57.794Z,3.33
2023-04-25T21:21:26.371Z,2.38
2023-04-25T21:23:57.585Z,2.88
2023-04-25T21:26:29.043Z,1.88
2023-04-25T21:28:57.420Z,2.05
2023-04-25T21:31:26.295Z,2.50
2023-04-25T21:33:54.765Z,2.20
2023-04-25T21:36:26.358Z,1.92
2023-04-25T21:38:58.615Z,2.00
2023-04-25T21:41:27.180Z,1.88
2023-04-25T21:43:55.920Z,2.10
2023-04-25T21:46:29.272Z,2.67
2023-04-25T21:48:59.983Z,2.10
2023-04-25T21:51:30.213Z,1.83
2023-04-25T21:54:01.212Z,2.13
2023-04-25T21:56:31.207Z,1.92
2023-04-25T21:59:11.905Z,2.47
2023-04-25T22:01:40.353Z,2.60
2023-04-25T22:04:08.855Z,1.90
2023-04-25T22:06:37.501Z,2.08
2023-04-25T22:09:07.191Z,2.15
2023-04-25T22:11:46.889Z,1.77
2023-04-25T22:14:15.308Z,2.08
2023-04-25T22:16:50.898Z,1.70
2023-04-25T22:19:19.289Z,2.33
2023-04-25T22:21:47.694Z,1.83
2023-04-25T22:24:20.945Z,2.00
2023-04-25T22:26:49.558Z,1.95
2023-04-25T22:29:17.799Z,2.22
2023-04-25T22:31:46.058Z,2.95
2023-04-25T22:34:14.854Z,2.05
2023-04-25T22:36:43.563Z,2.05
2023-04-25T22:39:16.809Z,1.73
2023-04-25T22:41:46.618Z,2.25
2023-04-25T22:44:15.579Z,2.30
2023-04-25T22:46:43.993Z,1.60
2023-04-25T22:49:12.341Z,2.17
2023-04-25T22:51:40.918Z,2.33
2023-04-25T22:54:09.735Z,2.88
2023-04-25T22:56:40.326Z,2.20
2023-04-25T22:59:12.542Z,2.30
2023-04-25T23:01:40.840Z,2.40
2023-04-25T23:04:09.261Z,2.17
2023-04-25T23:06:37.912Z,1.80
2023-04-25T23:09:08.551Z,1.92
2023-04-25T23:11:37.197Z,2.28
2023-04-25T23:14:05.591Z,2.53
2023-04-25T23:16:35.998Z,2.67
2023-04-25T23:19:08.021Z,2.22
2023-04-25T23:21:36.288Z,2.50
2023-04-25T23:24:06.952Z,1.55
2023-04-25T23:26:35.428Z,2.30
2023-04-25T23:29:05.067Z,2.72
2023-04-25T23:31:34.781Z,2.85
2023-04-25T23:34:03.357Z,2.10
2023-04-25T23:36:36.346Z,2.13
2023-04-25T23:39:05.595Z,2.40
2023-04-25T23:41:34.282Z,2.40
2023-04-25T23:44:03.533Z,2.42
2023-04-25T23:46:38.902Z,2.33
2023-04-25T23:49:10.893Z,2.53
2023-04-25T23:51:39.279Z,2.38
2023-04-25T23:54:08.295Z,2.47
2023-04-25T23:56:36.572Z,2.60
2023-04-25T23:59:05.005Z,2.38
